sensor_id;sensor_type;location;lat;lon;timestamp;temperature;humidity
19164;DHT22;9714;51.208;4.242;2023-06-14T00:00:46;22.50;81.30
19164;DHT22;9714;51.208;4.242;2023-06-14T00:03:27;22.50;82.20
19164;DHT22;9714;51.208;4.242;2023-06-14T00:06:00;22.40;83.00
19164;DHT22;9714;51.208;4.242;2023-06-14T00:08:37;22.40;83.90
19164;DHT22;9714;51.208;4.242;2023-06-14T00:11:33;22.30;85.00
19164;DHT22;9714;51.208;4.242;2023-06-14T00:14:01;22.30;85.50
19164;DHT22;9714;51.208;4.242;2023-06-14T00:16:37;22.40;85.60
19164;DHT22;9714;51.208;4.242;2023-06-14T00:19:13;22.30;86.30
19164;DHT22;9714;51.208;4.242;2023-06-14T00:21:41;22.40;86.00
19164;DHT22;9714;51.208;4.242;2023-06-14T00:24:09;22.30;85.60
19164;DHT22;9714;51.208;4.242;2023-06-14T00:26:37;22.20;86.50
19164;DHT22;9714;51.208;4.242;2023-06-14T00:29:04;22.10;87.50
19164;DHT22;9714;51.208;4.242;2023-06-14T00:31:32;22.20;87.20
19164;DHT22;9714;51.208;4.242;2023-06-14T00:33:59;22.20;86.70
19164;DHT22;9714;51.208;4.242;2023-06-14T00:36:28;22.20;86.60
19164;DHT22;9714;51.208;4.242;2023-06-14T00:38:56;22.20;86.60
19164;DHT22;9714;51.208;4.242;2023-06-14T00:41:23;22.10;86.90
19164;DHT22;9714;51.208;4.242;2023-06-14T00:44:04;21.90;87.70
19164;DHT22;9714;51.208;4.242;2023-06-14T00:46:38;21.80;88.70
19164;DHT22;9714;51.208;4.242;2023-06-14T00:49:06;21.80;88.20
19164;DHT22;9714;51.208;4.242;2023-06-14T00:51:35;21.80;87.00
19164;DHT22;9714;51.208;4.242;2023-06-14T00:54:03;21.90;86.30
19164;DHT22;9714;51.208;4.242;2023-06-14T00:56:36;21.70;86.80
19164;DHT22;9714;51.208;4.242;2023-06-14T01:02:28;21.80;85.70
19164;DHT22;9714;51.208;4.242;2023-06-14T01:12:07;21.60;84.70
19164;DHT22;9714;51.208;4.242;2023-06-14T01:15:09;21.60;81.60
19164;DHT22;9714;51.208;4.242;2023-06-14T01:17:41;21.70;80.50
19164;DHT22;9714;51.208;4.242;2023-06-14T01:20:23;21.80;79.30
19164;DHT22;9714;51.208;4.242;2023-06-14T01:36:41;21.60;74.00
19164;DHT22;9714;51.208;4.242;2023-06-14T01:39:21;21.40;74.00
19164;DHT22;9714;51.208;4.242;2023-06-14T01:52:33;21.40;72.50
19164;DHT22;9714;51.208;4.242;2023-06-14T01:55:04;21.40;72.00
19164;DHT22;9714;51.208;4.242;2023-06-14T01:57:37;21.30;71.90
19164;DHT22;9714;51.208;4.242;2023-06-14T02:00:09;21.30;71.50
19164;DHT22;9714;51.208;4.242;2023-06-14T02:02:56;21.40;70.70
19164;DHT22;9714;51.208;4.242;2023-06-14T02:05:32;21.30;70.90
19164;DHT22;9714;51.208;4.242;2023-06-14T02:08:02;21.30;70.50
19164;DHT22;9714;51.208;4.242;2023-06-14T02:10:35;21.30;70.30
19164;DHT22;9714;51.208;4.242;2023-06-14T02:13:03;21.40;69.80
19164;DHT22;9714;51.208;4.242;2023-06-14T02:15:37;21.50;69.30
19164;DHT22;9714;51.208;4.242;2023-06-14T02:34:00;21.10;69.40
19164;DHT22;9714;51.208;4.242;2023-06-14T02:36:35;21.10;69.30
19164;DHT22;9714;51.208;4.242;2023-06-14T02:39:08;21.20;68.50
19164;DHT22;9714;51.208;4.242;2023-06-14T02:41:43;21.20;68.00
19164;DHT22;9714;51.208;4.242;2023-06-14T02:44:17;21.20;67.40
19164;DHT22;9714;51.208;4.242;2023-06-14T02:46:51;21.10;67.30
19164;DHT22;9714;51.208;4.242;2023-06-14T02:49:30;21.10;67.40
19164;DHT22;9714;51.208;4.242;2023-06-14T02:52:07;21.10;67.00
19164;DHT22;9714;51.208;4.242;2023-06-14T02:54:36;21.00;66.90
19164;DHT22;9714;51.208;4.242;2023-06-14T02:57:07;20.90;67.20
19164;DHT22;9714;51.208;4.242;2023-06-14T02:59:38;20.90;67.70
19164;DHT22;9714;51.208;4.242;2023-06-14T03:02:20;20.80;67.90
19164;DHT22;9714;51.208;4.242;2023-06-14T03:04:49;20.80;68.00
19164;DHT22;9714;51.208;4.242;2023-06-14T03:07:18;20.80;68.10
19164;DHT22;9714;51.208;4.242;2023-06-14T03:09:48;20.70;68.40
19164;DHT22;9714;51.208;4.242;2023-06-14T03:12:19;20.70;68.60
19164;DHT22;9714;51.208;4.242;2023-06-14T03:14:49;20.70;68.80
19164;DHT22;9714;51.208;4.242;2023-06-14T03:17:25;20.70;68.60
19164;DHT22;9714;51.208;4.242;2023-06-14T03:19:57;20.70;68.30
19164;DHT22;9714;51.208;4.242;2023-06-14T03:22:26;20.50;69.20
19164;DHT22;9714;51.208;4.242;2023-06-14T03:24:54;20.50;68.90
19164;DHT22;9714;51.208;4.242;2023-06-14T03:31:01;20.50;68.30
19164;DHT22;9714;51.208;4.242;2023-06-14T03:33:39;20.40;68.10
19164;DHT22;9714;51.208;4.242;2023-06-14T03:36:08;20.40;67.60
19164;DHT22;9714;51.208;4.242;2023-06-14T03:42:55;20.30;68.00
19164;DHT22;9714;51.208;4.242;2023-06-14T03:49:47;20.30;67.50
19164;DHT22;9714;51.208;4.242;2023-06-14T04:03:33;20.20;67.50
19164;DHT22;9714;51.208;4.242;2023-06-14T04:06:21;20.10;68.20
19164;DHT22;9714;51.208;4.242;2023-06-14T04:12:18;20.10;68.80
19164;DHT22;9714;51.208;4.242;2023-06-14T04:15:16;20.10;68.60
19164;DHT22;9714;51.208;4.242;2023-06-14T04:17:51;20.00;69.10
19164;DHT22;9714;51.208;4.242;2023-06-14T04:20:37;20.00;69.00
19164;DHT22;9714;51.208;4.242;2023-06-14T04:23:40;20.10;69.00
19164;DHT22;9714;51.208;4.242;2023-06-14T04:26:15;20.00;69.30
19164;DHT22;9714;51.208;4.242;2023-06-14T04:28:49;20.10;69.40
19164;DHT22;9714;51.208;4.242;2023-06-14T04:31:21;20.20;69.00
19164;DHT22;9714;51.208;4.242;2023-06-14T04:33:56;20.20;69.20
19164;DHT22;9714;51.208;4.242;2023-06-14T04:36:32;20.20;69.40
19164;DHT22;9714;51.208;4.242;2023-06-14T04:39:12;20.30;69.50
19164;DHT22;9714;51.208;4.242;2023-06-14T04:41:40;20.40;69.40
19164;DHT22;9714;51.208;4.242;2023-06-14T04:44:11;20.30;69.30
19164;DHT22;9714;51.208;4.242;2023-06-14T04:46:44;20.30;69.50
19164;DHT22;9714;51.208;4.242;2023-06-14T04:49:16;20.30;69.70
19164;DHT22;9714;51.208;4.242;2023-06-14T04:51:51;20.30;69.80
19164;DHT22;9714;51.208;4.242;2023-06-14T04:58:52;20.40;69.20
19164;DHT22;9714;51.208;4.242;2023-06-14T05:11:50;20.70;69.20
19164;DHT22;9714;51.208;4.242;2023-06-14T05:14:29;20.60;69.00
19164;DHT22;9714;51.208;4.242;2023-06-14T05:20:19;20.80;69.20
19164;DHT22;9714;51.208;4.242;2023-06-14T05:22:53;21.00;68.40
19164;DHT22;9714;51.208;4.242;2023-06-14T05:25:21;21.00;68.30
19164;DHT22;9714;51.208;4.242;2023-06-14T05:27:53;20.90;68.50
19164;DHT22;9714;51.208;4.242;2023-06-14T05:30:26;20.90;68.90
19164;DHT22;9714;51.208;4.242;2023-06-14T05:37:03;21.20;68.80
19164;DHT22;9714;51.208;4.242;2023-06-14T05:39:44;21.40;68.20
19164;DHT22;9714;51.208;4.242;2023-06-14T05:45:42;21.40;68.20
19164;DHT22;9714;51.208;4.242;2023-06-14T05:48:14;21.50;68.00
19164;DHT22;9714;51.208;4.242;2023-06-14T05:50:46;21.60;68.20
19164;DHT22;9714;51.208;4.242;2023-06-14T05:53:34;21.70;68.10
19164;DHT22;9714;51.208;4.242;2023-06-14T06:26:33;22.30;67.40
19164;DHT22;9714;51.208;4.242;2023-06-14T06:29:00;22.50;66.00
19164;DHT22;9714;51.208;4.242;2023-06-14T06:31:28;22.60;65.60
19164;DHT22;9714;51.208;4.242;2023-06-14T06:33:57;22.70;66.20
19164;DHT22;9714;51.208;4.242;2023-06-14T08:17:44;27.40;57.80
19164;DHT22;9714;51.208;4.242;2023-06-14T08:20:13;27.30;57.90
19164;DHT22;9714;51.208;4.242;2023-06-14T08:22:45;27.40;58.30
19164;DHT22;9714;51.208;4.242;2023-06-14T08:25:14;27.40;57.40
19164;DHT22;9714;51.208;4.242;2023-06-14T08:27:42;27.50;58.00
19164;DHT22;9714;51.208;4.242;2023-06-14T08:30:11;27.70;58.10
19164;DHT22;9714;51.208;4.242;2023-06-14T08:32:38;27.40;57.70
19164;DHT22;9714;51.208;4.242;2023-06-14T08:35:10;27.40;58.10
19164;DHT22;9714;51.208;4.242;2023-06-14T08:37:38;27.50;58.00
19164;DHT22;9714;51.208;4.242;2023-06-14T08:40:18;27.50;58.40
19164;DHT22;9714;51.208;4.242;2023-06-14T08:42:49;27.90;57.80
19164;DHT22;9714;51.208;4.242;2023-06-14T08:45:18;28.40;57.50
19164;DHT22;9714;51.208;4.242;2023-06-14T08:47:47;29.00;56.10
19164;DHT22;9714;51.208;4.242;2023-06-14T08:50:21;29.80;55.30
19164;DHT22;9714;51.208;4.242;2023-06-14T08:52:53;30.10;54.80
19164;DHT22;9714;51.208;4.242;2023-06-14T08:55:22;31.10;53.00
19164;DHT22;9714;51.208;4.242;2023-06-14T08:57:55;31.80;52.00
19164;DHT22;9714;51.208;4.242;2023-06-14T09:00:27;31.70;51.30
19164;DHT22;9714;51.208;4.242;2023-06-14T09:02:55;32.40;50.00
19164;DHT22;9714;51.208;4.242;2023-06-14T09:05:26;32.60;50.10
19164;DHT22;9714;51.208;4.242;2023-06-14T09:07:54;32.60;49.20
19164;DHT22;9714;51.208;4.242;2023-06-14T09:10:29;33.30;48.30
19164;DHT22;9714;51.208;4.242;2023-06-14T09:13:09;32.90;48.10
19164;DHT22;9714;51.208;4.242;2023-06-14T09:15:38;33.30;47.60
19164;DHT22;9714;51.208;4.242;2023-06-14T09:18:06;33.50;47.00
19164;DHT22;9714;51.208;4.242;2023-06-14T09:20:35;33.90;46.80
19164;DHT22;9714;51.208;4.242;2023-06-14T09:23:03;33.80;46.10
19164;DHT22;9714;51.208;4.242;2023-06-14T09:25:42;33.10;47.10
19164;DHT22;9714;51.208;4.242;2023-06-14T09:28:10;33.40;45.60
19164;DHT22;9714;51.208;4.242;2023-06-14T09:30:38;33.00;46.40
19164;DHT22;9714;51.208;4.242;2023-06-14T09:33:06;33.40;46.20
19164;DHT22;9714;51.208;4.242;2023-06-14T09:35:35;33.90;46.00
19164;DHT22;9714;51.208;4.242;2023-06-14T09:38:03;33.20;46.10
19164;DHT22;9714;51.208;4.242;2023-06-14T09:40:34;33.60;44.80
19164;DHT22;9714;51.208;4.242;2023-06-14T09:43:05;33.20;44.20
19164;DHT22;9714;51.208;4.242;2023-06-14T09:45:34;32.70;44.60
19164;DHT22;9714;51.208;4.242;2023-06-14T09:48:07;33.00;46.20
19164;DHT22;9714;51.208;4.242;2023-06-14T09:50:38;33.20;44.70
19164;DHT22;9714;51.208;4.242;2023-06-14T09:53:07;33.00;44.00
19164;DHT22;9714;51.208;4.242;2023-06-14T09:55:38;33.40;43.20
19164;DHT22;9714;51.208;4.242;2023-06-14T09:58:08;33.80;43.50
19164;DHT22;9714;51.208;4.242;2023-06-14T10:00:37;33.70;43.30
19164;DHT22;9714;51.208;4.242;2023-06-14T10:03:10;33.30;43.90
19164;DHT22;9714;51.208;4.242;2023-06-14T10:05:43;32.60;44.10
19164;DHT22;9714;51.208;4.242;2023-06-14T10:08:14;33.60;44.20
19164;DHT22;9714;51.208;4.242;2023-06-14T10:10:45;34.70;43.80
19164;DHT22;9714;51.208;4.242;2023-06-14T10:13:14;35.10;42.60
19164;DHT22;9714;51.208;4.242;2023-06-14T10:15:46;34.70;42.00
19164;DHT22;9714;51.208;4.242;2023-06-14T10:18:22;34.30;41.70
19164;DHT22;9714;51.208;4.242;2023-06-14T10:21:02;33.60;42.20
19164;DHT22;9714;51.208;4.242;2023-06-14T10:23:37;33.30;42.40
19164;DHT22;9714;51.208;4.242;2023-06-14T10:26:04;34.20;42.10
19164;DHT22;9714;51.208;4.242;2023-06-14T10:28:37;34.60;41.60
19164;DHT22;9714;51.208;4.242;2023-06-14T10:31:06;34.80;41.90
19164;DHT22;9714;51.208;4.242;2023-06-14T10:33:34;35.00;40.60
19164;DHT22;9714;51.208;4.242;2023-06-14T10:36:30;35.10;41.30
19164;DHT22;9714;51.208;4.242;2023-06-14T10:39:01;35.00;41.10
19164;DHT22;9714;51.208;4.242;2023-06-14T10:41:31;35.20;41.30
19164;DHT22;9714;51.208;4.242;2023-06-14T10:44:32;35.40;39.90
19164;DHT22;9714;51.208;4.242;2023-06-14T10:47:01;35.80;39.10
19164;DHT22;9714;51.208;4.242;2023-06-14T10:49:39;35.50;39.70
19164;DHT22;9714;51.208;4.242;2023-06-14T10:52:13;35.90;40.40
19164;DHT22;9714;51.208;4.242;2023-06-14T11:00:51;36.10;38.20
19164;DHT22;9714;51.208;4.242;2023-06-14T11:03:50;36.10;38.50
19164;DHT22;9714;51.208;4.242;2023-06-14T11:06:22;36.40;39.10
19164;DHT22;9714;51.208;4.242;2023-06-14T11:09:20;36.70;38.30
19164;DHT22;9714;51.208;4.242;2023-06-14T11:11:51;37.60;38.30
19164;DHT22;9714;51.208;4.242;2023-06-14T11:14:20;38.00;37.00
19164;DHT22;9714;51.208;4.242;2023-06-14T11:16:55;37.70;37.60
19164;DHT22;9714;51.208;4.242;2023-06-14T11:19:39;37.20;37.70
19164;DHT22;9714;51.208;4.242;2023-06-14T11:22:09;37.10;38.10
19164;DHT22;9714;51.208;4.242;2023-06-14T11:24:40;36.60;37.50
19164;DHT22;9714;51.208;4.242;2023-06-14T11:27:33;38.40;36.90
19164;DHT22;9714;51.208;4.242;2023-06-14T11:30:10;38.30;36.40
19164;DHT22;9714;51.208;4.242;2023-06-14T11:32:59;38.30;36.20
19164;DHT22;9714;51.208;4.242;2023-06-14T11:35:28;38.90;36.10
19164;DHT22;9714;51.208;4.242;2023-06-14T11:37:56;39.30;35.20
19164;DHT22;9714;51.208;4.242;2023-06-14T11:40:26;38.90;34.70
19164;DHT22;9714;51.208;4.242;2023-06-14T11:42:58;38.30;35.60
19164;DHT22;9714;51.208;4.242;2023-06-14T11:45:26;38.10;35.70
19164;DHT22;9714;51.208;4.242;2023-06-14T11:47:55;37.40;34.70
19164;DHT22;9714;51.208;4.242;2023-06-14T11:50:23;37.90;35.50
19164;DHT22;9714;51.208;4.242;2023-06-14T11:52:53;38.80;35.20
19164;DHT22;9714;51.208;4.242;2023-06-14T11:55:22;38.90;34.90
19164;DHT22;9714;51.208;4.242;2023-06-14T11:57:51;39.40;34.20
19164;DHT22;9714;51.208;4.242;2023-06-14T12:00:19;37.40;35.40
19164;DHT22;9714;51.208;4.242;2023-06-14T12:02:55;37.80;35.50
19164;DHT22;9714;51.208;4.242;2023-06-14T12:05:27;38.20;34.80
19164;DHT22;9714;51.208;4.242;2023-06-14T12:08:01;39.30;34.20
19164;DHT22;9714;51.208;4.242;2023-06-14T12:10:51;38.40;34.40
19164;DHT22;9714;51.208;4.242;2023-06-14T12:13:37;38.50;35.50
19164;DHT22;9714;51.208;4.242;2023-06-14T12:16:29;39.50;34.80
19164;DHT22;9714;51.208;4.242;2023-06-14T12:19:14;40.90;33.80
19164;DHT22;9714;51.208;4.242;2023-06-14T12:21:46;41.70;33.10
19164;DHT22;9714;51.208;4.242;2023-06-14T12:24:16;40.90;32.80
19164;DHT22;9714;51.208;4.242;2023-06-14T12:26:43;39.70;33.50
19164;DHT22;9714;51.208;4.242;2023-06-14T12:29:14;39.30;34.20
19164;DHT22;9714;51.208;4.242;2023-06-14T12:31:41;39.30;33.70
19164;DHT22;9714;51.208;4.242;2023-06-14T12:34:09;39.50;34.00
19164;DHT22;9714;51.208;4.242;2023-06-14T12:36:38;40.50;33.90
19164;DHT22;9714;51.208;4.242;2023-06-14T12:39:15;40.30;33.70
19164;DHT22;9714;51.208;4.242;2023-06-14T12:41:42;39.50;33.90
19164;DHT22;9714;51.208;4.242;2023-06-14T12:44:12;39.90;33.60
19164;DHT22;9714;51.208;4.242;2023-06-14T12:46:40;39.90;33.30
19164;DHT22;9714;51.208;4.242;2023-06-14T12:49:10;39.40;33.20
19164;DHT22;9714;51.208;4.242;2023-06-14T12:51:38;39.10;32.70
19164;DHT22;9714;51.208;4.242;2023-06-14T12:54:11;39.30;32.80
19164;DHT22;9714;51.208;4.242;2023-06-14T12:56:40;38.20;33.50
19164;DHT22;9714;51.208;4.242;2023-06-14T12:59:16;38.40;33.80
19164;DHT22;9714;51.208;4.242;2023-06-14T13:01:43;38.90;33.60
19164;DHT22;9714;51.208;4.242;2023-06-14T13:04:13;38.50;32.70
19164;DHT22;9714;51.208;4.242;2023-06-14T13:06:41;38.70;33.00
19164;DHT22;9714;51.208;4.242;2023-06-14T13:09:09;39.40;32.90
19164;DHT22;9714;51.208;4.242;2023-06-14T13:11:38;39.20;31.80
19164;DHT22;9714;51.208;4.242;2023-06-14T13:14:06;39.30;33.10
19164;DHT22;9714;51.208;4.242;2023-06-14T13:16:35;40.10;31.90
19164;DHT22;9714;51.208;4.242;2023-06-14T13:19:03;39.50;31.30
19164;DHT22;9714;51.208;4.242;2023-06-14T13:21:31;39.10;31.80
19164;DHT22;9714;51.208;4.242;2023-06-14T13:23:59;39.70;31.40
19164;DHT22;9714;51.208;4.242;2023-06-14T13:26:36;39.70;31.10
19164;DHT22;9714;51.208;4.242;2023-06-14T13:29:03;39.00;31.20
19164;DHT22;9714;51.208;4.242;2023-06-14T13:31:31;39.00;31.00
19164;DHT22;9714;51.208;4.242;2023-06-14T13:33:59;39.10;31.80
19164;DHT22;9714;51.208;4.242;2023-06-14T13:36:27;39.50;30.80
19164;DHT22;9714;51.208;4.242;2023-06-14T13:38:56;39.00;32.20
19164;DHT22;9714;51.208;4.242;2023-06-14T13:41:26;39.70;31.80
19164;DHT22;9714;51.208;4.242;2023-06-14T13:43:58;40.20;31.20
19164;DHT22;9714;51.208;4.242;2023-06-14T13:46:26;40.40;31.20
19164;DHT22;9714;51.208;4.242;2023-06-14T13:48:53;39.80;30.60
19164;DHT22;9714;51.208;4.242;2023-06-14T13:51:22;40.40;30.30
19164;DHT22;9714;51.208;4.242;2023-06-14T13:53:53;39.90;30.50
19164;DHT22;9714;51.208;4.242;2023-06-14T13:56:21;39.30;30.60
19164;DHT22;9714;51.208;4.242;2023-06-14T13:58:50;38.60;30.60
19164;DHT22;9714;51.208;4.242;2023-06-14T14:01:18;38.40;32.10
19164;DHT22;9714;51.208;4.242;2023-06-14T14:03:46;38.30;31.00
19164;DHT22;9714;51.208;4.242;2023-06-14T14:06:14;38.50;31.20
19164;DHT22;9714;51.208;4.242;2023-06-14T14:08:43;38.40;31.60
19164;DHT22;9714;51.208;4.242;2023-06-14T14:11:11;37.80;32.00
19164;DHT22;9714;51.208;4.242;2023-06-14T14:13:39;38.30;31.80
19164;DHT22;9714;51.208;4.242;2023-06-14T14:16:10;38.20;31.40
19164;DHT22;9714;51.208;4.242;2023-06-14T14:18:38;37.60;31.80
19164;DHT22;9714;51.208;4.242;2023-06-14T14:21:05;37.60;32.10
19164;DHT22;9714;51.208;4.242;2023-06-14T14:23:34;37.90;31.50
19164;DHT22;9714;51.208;4.242;2023-06-14T14:26:03;38.90;31.70
19164;DHT22;9714;51.208;4.242;2023-06-14T14:28:32;39.40;31.20
19164;DHT22;9714;51.208;4.242;2023-06-14T14:31:01;38.80;30.60
19164;DHT22;9714;51.208;4.242;2023-06-14T14:33:30;38.10;31.10
19164;DHT22;9714;51.208;4.242;2023-06-14T14:36:04;37.60;31.70
19164;DHT22;9714;51.208;4.242;2023-06-14T14:39:14;37.00;31.40
19164;DHT22;9714;51.208;4.242;2023-06-14T15:51:05;35.10;34.00
19164;DHT22;9714;51.208;4.242;2023-06-14T15:53:52;34.40;35.50
19164;DHT22;9714;51.208;4.242;2023-06-14T15:56:19;34.40;34.40
19164;DHT22;9714;51.208;4.242;2023-06-14T15:58:48;33.70;35.00
19164;DHT22;9714;51.208;4.242;2023-06-14T16:01:22;33.70;35.40
19164;DHT22;9714;51.208;4.242;2023-06-14T16:03:50;33.90;35.60
19164;DHT22;9714;51.208;4.242;2023-06-14T16:06:19;33.00;35.30
19164;DHT22;9714;51.208;4.242;2023-06-14T16:08:49;33.30;35.20
19164;DHT22;9714;51.208;4.242;2023-06-14T16:11:21;33.40;35.50
19164;DHT22;9714;51.208;4.242;2023-06-14T16:13:49;33.40;35.80
19164;DHT22;9714;51.208;4.242;2023-06-14T16:16:16;32.70;35.90
19164;DHT22;9714;51.208;4.242;2023-06-14T16:18:49;32.10;36.40
19164;DHT22;9714;51.208;4.242;2023-06-14T16:21:44;31.90;37.20
19164;DHT22;9714;51.208;4.242;2023-06-14T16:24:27;31.40;37.60
19164;DHT22;9714;51.208;4.242;2023-06-14T16:34:21;30.50;38.80
19164;DHT22;9714;51.208;4.242;2023-06-14T16:41:00;30.30;39.20
19164;DHT22;9714;51.208;4.242;2023-06-14T16:43:35;30.10;38.70
19164;DHT22;9714;51.208;4.242;2023-06-14T16:46:04;30.20;39.20
19164;DHT22;9714;51.208;4.242;2023-06-14T16:48:31;30.30;39.60
19164;DHT22;9714;51.208;4.242;2023-06-14T16:51:00;30.20;39.20
19164;DHT22;9714;51.208;4.242;2023-06-14T16:53:27;30.00;39.80
19164;DHT22;9714;51.208;4.242;2023-06-14T16:56:02;30.10;38.80
19164;DHT22;9714;51.208;4.242;2023-06-14T16:58:40;30.00;39.30
19164;DHT22;9714;51.208;4.242;2023-06-14T17:01:12;30.10;39.90
19164;DHT22;9714;51.208;4.242;2023-06-14T17:03:40;30.10;38.90
19164;DHT22;9714;51.208;4.242;2023-06-14T17:06:13;29.80;38.70
19164;DHT22;9714;51.208;4.242;2023-06-14T17:08:48;29.70;39.30
19164;DHT22;9714;51.208;4.242;2023-06-14T17:11:31;29.60;39.10
19164;DHT22;9714;51.208;4.242;2023-06-14T17:14:02;29.60;39.20
19164;DHT22;9714;51.208;4.242;2023-06-14T17:16:40;29.50;38.70
19164;DHT22;9714;51.208;4.242;2023-06-14T17:19:10;29.20;38.60
19164;DHT22;9714;51.208;4.242;2023-06-14T17:21:41;29.20;38.20
19164;DHT22;9714;51.208;4.242;2023-06-14T17:24:14;29.20;37.80
19164;DHT22;9714;51.208;4.242;2023-06-14T17:26:46;29.20;38.30
19164;DHT22;9714;51.208;4.242;2023-06-14T17:29:24;29.10;38.50
19164;DHT22;9714;51.208;4.242;2023-06-14T17:31:54;29.00;38.20
19164;DHT22;9714;51.208;4.242;2023-06-14T17:34:25;29.00;38.50
19164;DHT22;9714;51.208;4.242;2023-06-14T17:37:00;29.20;38.30
19164;DHT22;9714;51.208;4.242;2023-06-14T17:39:29;29.20;38.00
19164;DHT22;9714;51.208;4.242;2023-06-14T17:42:00;29.20;38.80
19164;DHT22;9714;51.208;4.242;2023-06-14T17:44:29;28.90;39.80
19164;DHT22;9714;51.208;4.242;2023-06-14T17:46:58;28.80;40.20
19164;DHT22;9714;51.208;4.242;2023-06-14T17:49:26;28.90;40.30
19164;DHT22;9714;51.208;4.242;2023-06-14T17:52:00;28.80;40.30
19164;DHT22;9714;51.208;4.242;2023-06-14T17:54:29;28.80;40.10
19164;DHT22;9714;51.208;4.242;2023-06-14T17:57:05;28.70;40.30
19164;DHT22;9714;51.208;4.242;2023-06-14T17:59:37;28.50;40.10
19164;DHT22;9714;51.208;4.242;2023-06-14T18:02:10;28.50;40.00
19164;DHT22;9714;51.208;4.242;2023-06-14T18:04:39;28.50;40.20
19164;DHT22;9714;51.208;4.242;2023-06-14T18:07:17;28.50;40.50
19164;DHT22;9714;51.208;4.242;2023-06-14T18:09:46;28.30;40.80
19164;DHT22;9714;51.208;4.242;2023-06-14T18:12:21;28.30;41.00
19164;DHT22;9714;51.208;4.242;2023-06-14T18:14:49;28.20;41.60
19164;DHT22;9714;51.208;4.242;2023-06-14T18:17:21;28.00;41.30
19164;DHT22;9714;51.208;4.242;2023-06-14T18:19:54;28.00;41.40
19164;DHT22;9714;51.208;4.242;2023-06-14T18:22:23;28.00;41.90
19164;DHT22;9714;51.208;4.242;2023-06-14T18:24:55;28.00;41.20
19164;DHT22;9714;51.208;4.242;2023-06-14T18:27:34;28.10;41.10
19164;DHT22;9714;51.208;4.242;2023-06-14T18:30:06;28.00;42.00
19164;DHT22;9714;51.208;4.242;2023-06-14T18:32:38;27.80;41.90
19164;DHT22;9714;51.208;4.242;2023-06-14T18:35:10;27.80;42.10
19164;DHT22;9714;51.208;4.242;2023-06-14T18:37:42;27.90;41.80
19164;DHT22;9714;51.208;4.242;2023-06-14T18:40:16;27.80;41.50
19164;DHT22;9714;51.208;4.242;2023-06-14T18:42:51;27.70;42.00
19164;DHT22;9714;51.208;4.242;2023-06-14T18:45:19;27.70;42.10
19164;DHT22;9714;51.208;4.242;2023-06-14T18:47:50;27.60;42.20
19164;DHT22;9714;51.208;4.242;2023-06-14T18:50:24;27.20;42.60
19164;DHT22;9714;51.208;4.242;2023-06-14T18:53:06;27.10;43.10
19164;DHT22;9714;51.208;4.242;2023-06-14T18:55:38;27.10;43.00
19164;DHT22;9714;51.208;4.242;2023-06-14T18:58:09;27.20;43.20
19164;DHT22;9714;51.208;4.242;2023-06-14T19:08:21;27.20;43.70
19164;DHT22;9714;51.208;4.242;2023-06-14T19:45:47;25.80;46.00
19164;DHT22;9714;51.208;4.242;2023-06-14T20:15:27;25.50;47.20
19164;DHT22;9714;51.208;4.242;2023-06-14T20:18:11;25.40;47.40
19164;DHT22;9714;51.208;4.242;2023-06-14T20:20:39;25.30;47.50
19164;DHT22;9714;51.208;4.242;2023-06-14T20:23:19;25.30;47.50
19164;DHT22;9714;51.208;4.242;2023-06-14T20:26:30;25.30;47.50
19164;DHT22;9714;51.208;4.242;2023-06-14T20:29:12;25.40;47.50
19164;DHT22;9714;51.208;4.242;2023-06-14T20:31:43;25.20;47.90
19164;DHT22;9714;51.208;4.242;2023-06-14T20:34:33;25.20;47.90
19164;DHT22;9714;51.208;4.242;2023-06-14T20:37:13;25.10;47.90
19164;DHT22;9714;51.208;4.242;2023-06-14T20:39:41;24.90;48.10
19164;DHT22;9714;51.208;4.242;2023-06-14T20:42:12;25.00;48.20
19164;DHT22;9714;51.208;4.242;2023-06-14T20:44:41;25.00;48.30
19164;DHT22;9714;51.208;4.242;2023-06-14T20:47:09;24.90;48.30
19164;DHT22;9714;51.208;4.242;2023-06-14T20:49:41;24.90;48.20
19164;DHT22;9714;51.208;4.242;2023-06-14T20:52:10;24.90;48.20
19164;DHT22;9714;51.208;4.242;2023-06-14T20:54:43;24.90;48.40
19164;DHT22;9714;51.208;4.242;2023-06-14T20:57:15;24.80;48.40
19164;DHT22;9714;51.208;4.242;2023-06-14T20:59:44;24.80;48.60
19164;DHT22;9714;51.208;4.242;2023-06-14T21:02:22;24.70;48.60
19164;DHT22;9714;51.208;4.242;2023-06-14T21:04:50;24.60;48.70
19164;DHT22;9714;51.208;4.242;2023-06-14T21:07:18;24.60;48.60
19164;DHT22;9714;51.208;4.242;2023-06-14T21:09:46;24.60;48.70
19164;DHT22;9714;51.208;4.242;2023-06-14T21:12:16;24.50;49.00
19164;DHT22;9714;51.208;4.242;2023-06-14T21:14:45;24.40;49.00
19164;DHT22;9714;51.208;4.242;2023-06-14T21:17:14;24.50;49.10
19164;DHT22;9714;51.208;4.242;2023-06-14T21:19:47;24.40;49.10
19164;DHT22;9714;51.208;4.242;2023-06-14T21:22:16;24.40;49.20
19164;DHT22;9714;51.208;4.242;2023-06-14T21:24:44;24.30;49.30
19164;DHT22;9714;51.208;4.242;2023-06-14T21:27:20;24.40;49.30
19164;DHT22;9714;51.208;4.242;2023-06-14T21:29:54;24.40;49.50
19164;DHT22;9714;51.208;4.242;2023-06-14T21:32:22;24.30;49.70
19164;DHT22;9714;51.208;4.242;2023-06-14T21:34:50;24.20;49.90
19164;DHT22;9714;51.208;4.242;2023-06-14T21:37:27;24.20;49.90
19164;DHT22;9714;51.208;4.242;2023-06-14T21:39:57;24.00;50.20
19164;DHT22;9714;51.208;4.242;2023-06-14T21:42:29;24.00;50.40
19164;DHT22;9714;51.208;4.242;2023-06-14T21:44:59;24.00;50.30
19164;DHT22;9714;51.208;4.242;2023-06-14T21:47:27;23.90;50.60
19164;DHT22;9714;51.208;4.242;2023-06-14T21:50:00;24.00;50.60
19164;DHT22;9714;51.208;4.242;2023-06-14T21:52:33;24.00;51.40
19164;DHT22;9714;51.208;4.242;2023-06-14T21:55:02;23.90;51.10
19164;DHT22;9714;51.208;4.242;2023-06-14T21:57:32;23.80;51.20
19164;DHT22;9714;51.208;4.242;2023-06-14T21:59:59;23.80;51.10
19164;DHT22;9714;51.208;4.242;2023-06-14T22:02:28;23.80;51.20
19164;DHT22;9714;51.208;4.242;2023-06-14T22:04:55;23.80;51.40
19164;DHT22;9714;51.208;4.242;2023-06-14T22:07:23;23.80;51.50
19164;DHT22;9714;51.208;4.242;2023-06-14T22:09:51;23.70;51.50
19164;DHT22;9714;51.208;4.242;2023-06-14T22:12:18;23.70;51.70
19164;DHT22;9714;51.208;4.242;2023-06-14T22:14:50;23.60;51.80
19164;DHT22;9714;51.208;4.242;2023-06-14T22:17:20;23.60;51.80
19164;DHT22;9714;51.208;4.242;2023-06-14T22:19:52;23.40;52.00
19164;DHT22;9714;51.208;4.242;2023-06-14T22:22:22;23.40;52.00
19164;DHT22;9714;51.208;4.242;2023-06-14T22:24:51;23.40;52.30
19164;DHT22;9714;51.208;4.242;2023-06-14T22:27:19;23.50;52.10
19164;DHT22;9714;51.208;4.242;2023-06-14T22:29:52;23.40;52.00
19164;DHT22;9714;51.208;4.242;2023-06-14T22:32:25;23.40;52.10
19164;DHT22;9714;51.208;4.242;2023-06-14T22:34:55;23.50;52.70
19164;DHT22;9714;51.208;4.242;2023-06-14T22:37:23;23.40;52.20
19164;DHT22;9714;51.208;4.242;2023-06-14T22:40:02;23.20;52.60
19164;DHT22;9714;51.208;4.242;2023-06-14T22:42:39;23.30;52.50
19164;DHT22;9714;51.208;4.242;2023-06-14T22:45:21;23.30;52.70
19164;DHT22;9714;51.208;4.242;2023-06-14T22:47:57;23.20;52.90
19164;DHT22;9714;51.208;4.242;2023-06-14T22:50:29;23.20;52.80